createdAt,value
2017-11-15T00:01:50.210Z,53.83
2017-11-15T00:04:16.506Z,61.30
2017-11-15T00:06:42.819Z,59.37
2017-11-15T00:09:09.042Z,59.53
2017-11-15T00:11:35.291Z,65.10
2017-11-15T00:14:01.536Z,63.93
2017-11-15T00:16:27.780Z,60.33
2017-11-15T00:18:54.014Z,57.90
2017-11-15T00:21:20.265Z,58.17
2017-11-15T00:23:46.479Z,65.43
2017-11-15T00:26:12.757Z,51.97
2017-11-15T00:28:39.022Z,59.17
2017-11-15T00:31:05.349Z,50.50
2017-11-15T00:33:31.597Z,59.87
2017-11-15T00:35:57.886Z,61.67
2017-11-15T00:38:24.109Z,52.03
2017-11-15T00:40:50.315Z,64.30
2017-11-15T00:43:16.585Z,67.00
2017-11-15T00:45:42.824Z,63.67
2017-11-15T00:48:09.030Z,48.97
2017-11-15T00:50:35.303Z,58.33
2017-11-15T00:53:01.525Z,63.20
2017-11-15T00:55:27.768Z,58.50
2017-11-15T00:57:54.022Z,66.43
2017-11-15T01:00:20.231Z,51.37
2017-11-15T01:02:46.454Z,56.93
2017-11-15T01:05:12.757Z,57.47
2017-11-15T01:07:38.992Z,50.43
2017-11-15T01:10:05.245Z,60.23
2017-11-15T01:12:31.556Z,59.17
2017-11-15T01:14:57.800Z,46.70
2017-11-15T01:17:24.048Z,49.17
2017-11-15T01:19:50.325Z,53.00
2017-11-15T01:22:16.560Z,34.80
2017-11-15T01:24:42.801Z,40.20
2017-11-15T01:27:09.112Z,34.00
2017-11-15T01:29:35.347Z,37.50
2017-11-15T01:32:01.589Z,38.93
2017-11-15T01:34:27.878Z,34.10
2017-11-15T01:36:54.113Z,42.37
2017-11-15T01:39:20.348Z,34.33
2017-11-15T01:41:46.717Z,34.30
2017-11-15T01:44:12.953Z,30.60
2017-11-15T01:46:39.205Z,36.63
2017-11-15T01:49:05.498Z,40.53
2017-11-15T01:51:31.749Z,38.73
2017-11-15T01:53:57.999Z,38.20
2017-11-15T01:56:24.277Z,33.13
2017-11-15T01:58:50.526Z,49.63
2017-11-15T02:01:16.779Z,45.77
2017-11-15T02:03:43.065Z,52.30
2017-11-15T02:06:09.309Z,45.03
2017-11-15T02:08:35.556Z,44.90
2017-11-15T02:11:01.927Z,50.90
2017-11-15T02:13:28.162Z,45.33
2017-11-15T02:15:54.396Z,48.37
2017-11-15T02:18:20.687Z,48.53
2017-11-15T02:20:46.930Z,56.73
2017-11-15T02:23:13.196Z,56.87
2017-11-15T02:25:39.480Z,48.23
2017-11-15T02:28:05.779Z,50.17
2017-11-15T02:30:32.014Z,46.47
2017-11-15T02:32:58.344Z,50.97
2017-11-15T02:35:24.643Z,48.03
2017-11-15T02:37:50.983Z,58.07
2017-11-15T02:40:17.272Z,58.67
2017-11-15T02:42:43.515Z,61.30
2017-11-15T02:45:09.761Z,48.87
2017-11-15T02:47:36.177Z,60.07
2017-11-15T02:50:02.438Z,67.30
2017-11-15T02:52:28.690Z,65.23
2017-11-15T02:54:55.027Z,68.33
2017-11-15T02:57:21.275Z,68.20
2017-11-15T02:59:47.548Z,49.97
2017-11-15T03:02:13.844Z,62.33
2017-11-15T03:04:40.088Z,53.50
2017-11-15T03:07:06.333Z,50.27
2017-11-15T03:09:32.603Z,52.73
2017-11-15T03:11:58.858Z,53.97
2017-11-15T03:14:25.097Z,59.33
2017-11-15T03:16:51.388Z,65.80
2017-11-15T03:19:17.632Z,55.67
2017-11-15T03:21:43.878Z,65.97
2017-11-15T03:24:10.163Z,55.77
2017-11-15T03:26:36.466Z,69.13
2017-11-15T03:29:02.692Z,64.93
2017-11-15T03:31:28.990Z,51.00
2017-11-15T03:33:55.253Z,66.80
2017-11-15T03:36:21.492Z,65.40
2017-11-15T03:38:47.775Z,55.07
2017-11-15T03:41:14.013Z,64.57
2017-11-15T03:43:40.237Z,64.10
2017-11-15T03:46:06.558Z,64.90
2017-11-15T03:48:32.807Z,69.43
2017-11-15T03:50:59.045Z,57.33
2017-11-15T03:53:25.308Z,64.83
2017-11-15T03:55:51.554Z,52.30
2017-11-15T03:58:17.801Z,68.67
2017-11-15T04:00:44.088Z,62.17
2017-11-15T04:03:10.335Z,62.83
2017-11-15T04:05:36.561Z,58.97
2017-11-15T04:08:02.879Z,59.50
2017-11-15T04:10:29.102Z,62.27
2017-11-15T04:12:55.365Z,64.63
2017-11-15T04:15:21.652Z,65.93
2017-11-15T04:17:47.908Z,65.90
2017-11-15T04:20:14.160Z,51.40
2017-11-15T04:22:40.597Z,73.53
2017-11-15T04:25:06.850Z,67.67
2017-11-15T04:27:33.087Z,63.60
2017-11-15T04:29:59.371Z,77.53
2017-11-15T04:32:25.628Z,72.50
2017-11-15T04:34:51.876Z,66.10
2017-11-15T04:37:18.185Z,53.53
2017-11-15T04:39:44.412Z,45.60
2017-11-15T04:42:10.654Z,47.33
2017-11-15T04:44:36.933Z,49.77
2017-11-15T04:47:03.177Z,36.10
2017-11-15T04:49:29.418Z,36.50
2017-11-15T04:51:55.701Z,40.40
2017-11-15T04:54:21.953Z,48.40
2017-11-15T04:56:48.188Z,47.43
2017-11-15T04:59:14.461Z,47.87
2017-11-15T05:01:40.707Z,46.40
2017-11-15T05:04:06.970Z,46.00
2017-11-15T05:06:33.398Z,56.57
2017-11-15T05:08:59.674Z,48.33
2017-11-15T05:11:25.921Z,39.03
2017-11-15T05:13:52.196Z,32.40
2017-11-15T05:16:18.426Z,25.00
2017-11-15T05:18:44.667Z,29.67
2017-11-15T05:21:10.956Z,36.50
2017-11-15T05:23:37.222Z,25.00
2017-11-15T05:26:03.479Z,30.77
2017-11-15T05:28:29.764Z,29.17
2017-11-15T05:30:56.031Z,36.20
2017-11-15T05:33:22.277Z,31.97
2017-11-15T05:35:48.588Z,27.60
2017-11-15T05:38:14.845Z,33.23
2017-11-15T05:40:41.079Z,29.00
2017-11-15T05:43:07.381Z,31.57
2017-11-15T05:45:33.758Z,28.03
2017-11-15T05:48:00.021Z,32.33
2017-11-15T05:50:26.277Z,35.20
2017-11-15T05:52:52.501Z,30.13
2017-11-15T05:55:18.752Z,27.03
2017-11-15T05:57:45.056Z,30.70
2017-11-15T06:00:11.352Z,34.20
2017-11-15T06:02:37.587Z,34.90
2017-11-15T06:05:03.856Z,36.70
2017-11-15T06:07:30.095Z,28.97
2017-11-15T06:09:56.397Z,36.03
2017-11-15T06:12:22.689Z,40.90
2017-11-15T06:14:48.948Z,25.77
2017-11-15T06:17:15.211Z,29.83
2017-11-15T06:19:41.590Z,27.37
2017-11-15T06:22:07.799Z,39.93
2017-11-15T06:24:34.039Z,29.37
2017-11-15T06:27:00.323Z,32.10
2017-11-15T06:29:26.636Z,25.67
2017-11-15T06:31:52.894Z,32.90
2017-11-15T06:34:19.168Z,23.53
2017-11-15T06:36:45.403Z,27.50
2017-11-15T06:39:11.649Z,22.93
2017-11-15T06:41:37.913Z,25.50
2017-11-15T06:44:04.158Z,24.37
2017-11-15T06:46:30.403Z,36.87
2017-11-15T06:48:56.686Z,40.43
2017-11-15T06:51:22.905Z,41.13
2017-11-15T06:53:49.323Z,21.73
2017-11-15T06:56:15.602Z,20.90
2017-11-15T06:58:41.855Z,24.00
2017-11-15T07:01:08.159Z,25.70
2017-11-15T07:03:34.445Z,26.50
2017-11-15T07:06:00.689Z,23.97
2017-11-15T07:08:26.914Z,31.47
2017-11-15T07:10:53.239Z,27.17
2017-11-15T07:13:19.498Z,29.40
2017-11-15T07:15:45.721Z,26.33
2017-11-15T07:18:12.015Z,23.40
2017-11-15T07:20:38.248Z,25.83
2017-11-15T07:23:04.479Z,29.03
2017-11-15T07:25:30.744Z,31.47
2017-11-15T07:27:56.982Z,29.80
2017-11-15T07:30:23.217Z,35.23
2017-11-15T07:32:49.493Z,29.67
2017-11-15T07:35:15.706Z,30.23
2017-11-15T07:37:41.965Z,31.20
2017-11-15T07:40:08.287Z,30.20
2017-11-15T07:42:34.518Z,30.80
2017-11-15T07:45:00.768Z,30.67
2017-11-15T07:47:27.051Z,35.63
2017-11-15T07:49:53.383Z,27.80
2017-11-15T07:52:19.621Z,25.63
2017-11-15T07:54:45.893Z,24.30
2017-11-15T07:57:12.134Z,24.00
2017-11-15T07:59:38.369Z,29.47
2017-11-15T08:02:04.658Z,36.10
2017-11-15T08:04:30.902Z,34.43
2017-11-15T08:06:57.151Z,29.37
2017-11-15T08:09:23.436Z,21.83
2017-11-15T08:11:49.884Z,19.23
2017-11-15T08:14:16.119Z,26.90
2017-11-15T08:16:42.378Z,25.83
2017-11-15T08:19:08.609Z,30.07
2017-11-15T08:21:34.847Z,49.50
2017-11-15T08:24:01.114Z,31.37
2017-11-15T08:26:27.341Z,28.07
2017-11-15T08:28:53.616Z,29.83
2017-11-15T08:31:19.906Z,81.73
2017-11-15T08:33:46.150Z,80.27
2017-11-15T08:36:12.390Z,32.90
2017-11-15T08:38:38.670Z,34.80
2017-11-15T08:41:05.037Z,47.23
2017-11-15T08:43:31.283Z,82.53
2017-11-15T08:45:57.571Z,36.63
2017-11-15T08:48:23.807Z,28.30
2017-11-15T08:50:50.059Z,27.77
2017-11-15T08:53:16.333Z,28.60
2017-11-15T08:55:42.563Z,31.20
2017-11-15T08:58:08.783Z,28.47
2017-11-15T09:00:35.090Z,22.00
2017-11-15T09:03:01.340Z,26.03
2017-11-15T09:05:27.571Z,20.80
2017-11-15T09:07:53.831Z,24.47
2017-11-15T09:10:20.064Z,35.97
2017-11-15T09:12:46.315Z,35.73
2017-11-15T09:15:12.657Z,22.80
2017-11-15T09:17:38.883Z,26.67
2017-11-15T09:20:05.116Z,38.10
2017-11-15T09:22:31.382Z,24.40
2017-11-15T09:24:57.766Z,27.67
2017-11-15T09:27:24.013Z,30.10
2017-11-15T09:29:50.291Z,41.23
2017-11-15T09:32:16.516Z,21.90
2017-11-15T09:34:42.764Z,19.47
2017-11-15T09:37:09.027Z,33.87
2017-11-15T09:39:35.255Z,28.63
2017-11-15T09:42:01.500Z,30.33
2017-11-15T09:44:27.820Z,25.13
2017-11-15T09:46:54.052Z,29.50
2017-11-15T09:49:20.286Z,36.53
2017-11-15T09:51:46.682Z,32.67
2017-11-15T09:54:12.922Z,33.47
2017-11-15T09:56:39.177Z,25.33
2017-11-15T09:59:05.447Z,31.40
2017-11-15T10:01:31.680Z,28.73
2017-11-15T10:03:57.915Z,37.13
2017-11-15T10:06:24.188Z,30.90
2017-11-15T10:08:50.426Z,35.67
2017-11-15T10:11:16.681Z,43.07
2017-11-15T10:13:42.988Z,44.43
2017-11-15T10:16:09.237Z,39.27
2017-11-15T10:18:35.482Z,36.97
2017-11-15T10:21:01.776Z,51.73
2017-11-15T10:23:28.049Z,50.90
2017-11-15T10:25:54.291Z,53.43
2017-11-15T10:28:20.566Z,61.93
2017-11-15T10:30:46.800Z,41.53
2017-11-15T10:33:13.046Z,59.37
2017-11-15T10:35:39.323Z,50.30
2017-11-15T10:38:05.579Z,55.93
2017-11-15T10:40:31.831Z,49.60
2017-11-15T10:42:58.119Z,65.33
2017-11-15T10:45:24.362Z,51.33
2017-11-15T10:47:50.591Z,54.63
2017-11-15T10:50:16.853Z,53.20
2017-11-15T10:52:43.087Z,61.20
2017-11-15T10:55:09.337Z,63.80
2017-11-15T10:57:35.628Z,61.23
2017-11-15T11:00:01.849Z,45.13
2017-11-15T11:02:28.084Z,57.20
2017-11-15T11:04:54.354Z,59.83
2017-11-15T11:07:21.150Z,50.07
2017-11-15T11:09:48.417Z,50.83
2017-11-15T11:12:15.923Z,55.83
2017-11-15T11:14:42.978Z,61.67
2017-11-15T11:17:09.368Z,75.53
2017-11-15T11:19:35.631Z,57.47
2017-11-15T11:22:01.873Z,58.20
2017-11-15T11:24:28.110Z,52.13
2017-11-15T11:26:54.388Z,52.43
2017-11-15T11:29:20.626Z,65.17
2017-11-15T11:31:46.864Z,71.03
2017-11-15T11:34:13.146Z,65.47
2017-11-15T11:36:39.401Z,54.47
2017-11-15T11:39:05.638Z,62.40
2017-11-15T11:41:31.894Z,55.33
2017-11-15T11:43:58.129Z,70.07
2017-11-15T11:46:24.390Z,63.37
2017-11-15T11:48:50.670Z,51.87
2017-11-15T11:51:16.937Z,56.90
2017-11-15T11:53:43.158Z,51.20
2017-11-15T11:56:09.428Z,48.47
2017-11-15T11:58:35.675Z,61.80
2017-11-15T12:01:01.919Z,54.73
2017-11-15T12:03:28.211Z,56.10
2017-11-15T12:05:54.453Z,53.70
2017-11-15T12:08:20.683Z,86.50
2017-11-15T12:10:46.968Z,73.30
2017-11-15T12:13:13.205Z,70.33
2017-11-15T12:15:39.446Z,59.63
2017-11-15T12:18:05.710Z,78.37
2017-11-15T12:20:31.960Z,65.73
2017-11-15T12:22:58.215Z,62.33
2017-11-15T12:25:24.507Z,78.67
2017-11-15T12:27:50.747Z,63.50
2017-11-15T12:30:16.983Z,63.03
2017-11-15T12:32:43.318Z,55.00
2017-11-15T12:35:09.553Z,61.07
2017-11-15T12:37:35.800Z,67.53
2017-11-15T12:40:02.088Z,58.67
2017-11-15T12:42:28.454Z,54.90
2017-11-15T12:44:54.713Z,69.87
2017-11-15T12:47:20.980Z,76.17
2017-11-15T12:49:47.227Z,72.90
2017-11-15T12:52:13.486Z,82.87
2017-11-15T12:54:39.763Z,68.73
2017-11-15T12:57:06.046Z,64.53
2017-11-15T12:59:32.320Z,75.47
2017-11-15T13:01:58.595Z,71.70
2017-11-15T13:04:24.823Z,69.73
2017-11-15T13:06:51.390Z,82.53
2017-11-15T13:09:17.669Z,64.20
2017-11-15T13:11:43.943Z,64.57
2017-11-15T13:14:10.177Z,77.00
2017-11-15T13:16:36.558Z,72.43
2017-11-15T13:19:02.833Z,89.00
2017-11-15T13:21:29.058Z,80.20
2017-11-15T13:23:55.344Z,77.27
2017-11-15T13:26:21.578Z,72.10
2017-11-15T13:28:47.893Z,76.43
2017-11-15T13:31:14.181Z,70.83
2017-11-15T13:33:40.408Z,73.40
2017-11-15T13:36:06.627Z,76.90
2017-11-15T13:38:32.888Z,70.80
2017-11-15T13:40:59.464Z,82.37
2017-11-15T13:43:25.675Z,82.77
2017-11-15T13:45:51.972Z,86.07
2017-11-15T13:48:18.190Z,94.07
2017-11-15T13:50:44.435Z,107.63
2017-11-15T13:53:10.717Z,102.67
2017-11-15T13:55:36.961Z,114.30
2017-11-15T13:58:03.201Z,79.27
2017-11-15T14:00:29.479Z,99.53
2017-11-15T14:02:55.712Z,88.37
2017-11-15T14:05:21.981Z,83.57
2017-11-15T14:07:48.335Z,87.40
2017-11-15T14:10:14.554Z,137.37
2017-11-15T14:12:40.790Z,165.80
2017-11-15T14:15:07.079Z,157.17
2017-11-15T14:17:33.299Z,120.87
2017-11-15T14:19:59.520Z,130.57
2017-11-15T14:22:25.788Z,109.53
2017-11-15T14:24:52.028Z,114.43
2017-11-15T14:27:18.267Z,110.40
2017-11-15T14:29:44.571Z,124.47
2017-11-15T14:32:10.794Z,111.23
2017-11-15T14:34:37.031Z,110.67
2017-11-15T14:37:03.301Z,131.97
2017-11-15T14:39:29.561Z,122.27
2017-11-15T14:41:55.802Z,141.77
2017-11-15T14:44:22.077Z,126.10
2017-11-15T14:46:48.299Z,122.17
2017-11-15T14:49:14.537Z,118.03
2017-11-15T14:51:40.800Z,123.53
2017-11-15T14:54:07.035Z,126.97
2017-11-15T14:56:33.293Z,165.33
2017-11-15T14:58:59.786Z,120.00
2017-11-15T15:01:26.031Z,129.60
2017-11-15T15:03:52.264Z,130.60
2017-11-15T15:06:18.688Z,146.27
2017-11-15T15:08:45.320Z,137.33
2017-11-15T15:11:11.962Z,108.57
2017-11-15T15:13:38.212Z,118.10
2017-11-15T15:16:04.612Z,129.33
2017-11-15T15:18:30.896Z,118.73
2017-11-15T15:20:57.172Z,119.73
2017-11-15T15:23:23.412Z,136.70
2017-11-15T15:25:49.729Z,167.50
2017-11-15T15:28:15.992Z,158.30
2017-11-15T15:30:42.216Z,129.03
2017-11-15T15:33:08.616Z,113.03
2017-11-15T15:35:34.879Z,145.50
2017-11-15T15:38:01.111Z,159.00
2017-11-15T15:40:27.342Z,139.93
2017-11-15T15:42:53.617Z,260.87
2017-11-15T15:45:19.861Z,177.03
2017-11-15T15:47:46.102Z,167.80
2017-11-15T15:50:12.357Z,140.20
2017-11-15T15:52:38.650Z,135.70
2017-11-15T15:55:04.882Z,133.53
2017-11-15T15:57:31.159Z,144.23
2017-11-15T15:59:57.395Z,155.50
2017-11-15T16:02:23.634Z,141.83
2017-11-15T16:04:49.919Z,112.67
2017-11-15T16:07:16.168Z,129.00
2017-11-15T16:09:42.466Z,141.80
2017-11-15T16:12:08.750Z,153.20
2017-11-15T16:14:34.976Z,141.70
2017-11-15T16:17:01.196Z,137.10
2017-11-15T16:19:27.469Z,135.77
2017-11-15T16:21:53.724Z,131.87
2017-11-15T16:24:19.969Z,114.80
2017-11-15T16:26:46.261Z,117.83
2017-11-15T16:29:12.494Z,115.40
2017-11-15T16:31:38.717Z,112.93
2017-11-15T16:34:04.965Z,135.60
2017-11-15T16:36:31.206Z,130.97
2017-11-15T16:38:57.502Z,101.93
2017-11-15T16:41:23.768Z,108.57
2017-11-15T16:43:50.001Z,111.20
2017-11-15T16:46:16.226Z,144.13
2017-11-15T16:48:42.502Z,157.97
2017-11-15T16:51:08.734Z,132.20
2017-11-15T16:53:34.977Z,121.40
2017-11-15T16:56:01.264Z,133.60
2017-11-15T16:58:27.481Z,120.80
2017-11-15T17:00:53.695Z,134.80
2017-11-15T17:03:19.955Z,149.77
2017-11-15T17:05:46.194Z,137.73
2017-11-15T17:08:12.436Z,155.00
2017-11-15T17:10:38.721Z,162.97
2017-11-15T17:13:04.931Z,147.90
2017-11-15T17:15:31.161Z,144.30
2017-11-15T17:17:57.472Z,146.40
2017-11-15T17:20:23.695Z,151.30
2017-11-15T17:22:49.915Z,129.53
2017-11-15T17:25:16.181Z,122.60
2017-11-15T17:27:42.402Z,127.47
2017-11-15T17:30:08.809Z,119.20
2017-11-15T17:32:35.073Z,122.23
2017-11-15T17:35:01.298Z,117.87
2017-11-15T17:37:27.545Z,120.50
2017-11-15T17:39:53.830Z,154.40
2017-11-15T17:42:20.051Z,151.67
2017-11-15T17:44:46.283Z,144.43
2017-11-15T17:47:12.546Z,151.43
2017-11-15T17:49:38.767Z,145.07
2017-11-15T17:52:04.969Z,152.60
2017-11-15T17:54:31.234Z,143.57
2017-11-15T17:56:57.465Z,128.87
2017-11-15T17:59:23.693Z,121.93
2017-11-15T18:01:49.966Z,134.23
2017-11-15T18:04:16.208Z,139.17
2017-11-15T18:06:42.426Z,176.33
2017-11-15T18:09:09.162Z,150.00
2017-11-15T18:11:35.393Z,135.27
2017-11-15T18:14:01.631Z,122.00
2017-11-15T18:16:27.888Z,147.93
2017-11-15T18:18:54.106Z,147.63
2017-11-15T18:21:20.330Z,143.90
2017-11-15T18:23:46.589Z,133.20
2017-11-15T18:26:12.802Z,140.53
2017-11-15T18:28:39.032Z,139.43
2017-11-15T18:31:05.307Z,162.47
2017-11-15T18:33:31.561Z,140.10
2017-11-15T18:35:57.798Z,146.77
2017-11-15T18:38:24.055Z,150.23
2017-11-15T18:40:50.278Z,129.97
2017-11-15T18:43:16.509Z,154.03
2017-11-15T18:45:42.778Z,143.83
2017-11-15T18:48:08.995Z,154.27
2017-11-15T18:50:35.216Z,144.13
2017-11-15T18:53:01.486Z,139.73
2017-11-15T18:55:27.731Z,140.53
2017-11-15T18:57:53.968Z,126.23
2017-11-15T19:00:20.240Z,165.03
2017-11-15T19:02:46.463Z,167.90
2017-11-15T19:05:12.687Z,166.67
2017-11-15T19:07:38.955Z,164.63
2017-11-15T19:10:05.179Z,170.00
2017-11-15T19:12:31.417Z,172.53
2017-11-15T19:14:57.868Z,205.67
2017-11-15T19:17:24.101Z,143.77
2017-11-15T19:19:50.324Z,134.83
2017-11-15T19:22:16.584Z,159.77
2017-11-15T19:24:42.817Z,139.70
2017-11-15T19:27:09.030Z,143.33
2017-11-15T19:29:35.296Z,190.47
2017-11-15T19:32:01.534Z,156.93
2017-11-15T19:34:27.768Z,125.90
2017-11-15T19:36:54.018Z,160.57
2017-11-15T19:39:20.368Z,144.10
2017-11-15T19:41:46.610Z,128.50
2017-11-15T19:44:12.883Z,129.70
2017-11-15T19:46:39.121Z,130.63
2017-11-15T19:49:05.345Z,151.43
2017-11-15T19:51:31.610Z,151.70
2017-11-15T19:53:57.828Z,141.20
2017-11-15T19:56:24.054Z,127.00
2017-11-15T19:58:50.315Z,132.83
2017-11-15T20:01:16.539Z,152.43
2017-11-15T20:03:42.767Z,161.33
2017-11-15T20:06:09.031Z,143.03
2017-11-15T20:08:35.270Z,126.37
2017-11-15T20:11:01.560Z,132.03
2017-11-15T20:13:27.834Z,143.03
2017-11-15T20:15:54.060Z,150.73
2017-11-15T20:18:20.301Z,131.83
2017-11-15T20:20:46.578Z,174.53
2017-11-15T20:23:12.815Z,137.70
2017-11-15T20:25:39.067Z,145.87
2017-11-15T20:28:05.340Z,138.37
2017-11-15T20:30:31.569Z,166.93
2017-11-15T20:32:57.823Z,147.03
2017-11-15T20:35:24.085Z,167.70
2017-11-15T20:37:50.328Z,144.13
2017-11-15T20:40:16.727Z,163.77
2017-11-15T20:42:43.032Z,176.17
2017-11-15T20:45:09.293Z,139.10
2017-11-15T20:47:35.531Z,168.57
2017-11-15T20:50:01.800Z,162.13
2017-11-15T20:52:28.022Z,152.37
2017-11-15T20:54:54.261Z,219.63
2017-11-15T20:57:20.540Z,182.73
2017-11-15T20:59:46.788Z,183.20
2017-11-15T21:02:13.014Z,158.20
2017-11-15T21:04:39.275Z,165.23
2017-11-15T21:07:05.516Z,164.70
2017-11-15T21:09:31.760Z,167.93
2017-11-15T21:11:58.054Z,150.40
2017-11-15T21:14:24.301Z,148.43
2017-11-15T21:16:50.750Z,171.83
2017-11-15T21:19:17.036Z,163.43
2017-11-15T21:21:43.510Z,140.67
2017-11-15T21:24:09.739Z,137.30
2017-11-15T21:26:36.009Z,132.90
2017-11-15T21:29:02.246Z,130.07
2017-11-15T21:31:28.504Z,129.10
2017-11-15T21:33:54.768Z,126.43
2017-11-15T21:36:21.092Z,155.57
2017-11-15T21:38:47.312Z,126.37
2017-11-15T21:41:13.590Z,167.60
2017-11-15T21:43:39.829Z,139.73
2017-11-15T21:46:06.091Z,134.17
2017-11-15T21:48:32.350Z,161.17
2017-11-15T21:50:58.585Z,149.70
2017-11-15T21:53:24.819Z,133.03
2017-11-15T21:55:51.092Z,170.27
2017-11-15T21:58:17.322Z,148.57
2017-11-15T22:00:43.556Z,164.70
2017-11-15T22:03:09.838Z,136.67
2017-11-15T22:05:36.089Z,161.47
2017-11-15T22:08:02.333Z,172.27
2017-11-15T22:10:28.599Z,186.33
2017-11-15T22:12:54.828Z,162.20
2017-11-15T22:15:21.061Z,158.57
2017-11-15T22:17:47.337Z,153.87
2017-11-15T22:20:13.585Z,134.90
2017-11-15T22:22:39.818Z,127.10
2017-11-15T22:25:06.091Z,140.23
2017-11-15T22:27:32.308Z,175.47
2017-11-15T22:29:58.532Z,153.17
2017-11-15T22:32:24.794Z,145.60
2017-11-15T22:34:51.021Z,153.37
2017-11-15T22:37:17.269Z,153.27
2017-11-15T22:39:43.533Z,140.83
2017-11-15T22:42:09.777Z,159.17
2017-11-15T22:44:36.037Z,138.53
2017-11-15T22:47:03.041Z,136.83
2017-11-15T22:49:29.285Z,132.83
2017-11-15T22:51:55.710Z,119.60
2017-11-15T22:54:21.986Z,141.97
2017-11-15T22:56:48.218Z,132.90
2017-11-15T22:59:14.456Z,119.30
2017-11-15T23:01:40.745Z,146.40
2017-11-15T23:04:06.983Z,123.67
2017-11-15T23:06:33.210Z,142.53
2017-11-15T23:08:59.470Z,122.30
2017-11-15T23:11:25.694Z,144.63
2017-11-15T23:13:51.940Z,136.73
2017-11-15T23:16:18.213Z,106.10
2017-11-15T23:18:44.438Z,124.00
2017-11-15T23:21:10.659Z,127.83
2017-11-15T23:23:36.918Z,125.27
2017-11-15T23:26:03.295Z,121.97
2017-11-15T23:28:29.513Z,106.37
2017-11-15T23:30:55.792Z,112.83
2017-11-15T23:33:22.042Z,101.73
2017-11-15T23:35:48.299Z,111.47
2017-11-15T23:38:14.576Z,114.50
2017-11-15T23:40:40.806Z,128.40
2017-11-15T23:43:07.115Z,111.13
2017-11-15T23:45:33.385Z,113.03
2017-11-15T23:47:59.610Z,119.60
2017-11-15T23:50:25.853Z,97.73
2017-11-15T23:52:52.255Z,105.17
2017-11-15T23:55:18.492Z,82.17
2017-11-15T23:57:44.888Z,118.20
